Bologna, Italy
Current Conditions -  °F | °C
As of 2:20 AM on Friday 28 Nov 2014 (Local Time) from LIPE Reporting Station
Drizzle Drizzle  
Wind Chill: 46°   Ceiling: 300
Heat Index: 46°   Visibility: 1.2mi
Dew Point: 46°   Wind: 3mph
Humidity: 100%   Direction: 260°W
Pressure: 29.97"   Gusts: NA
Location:  44.49°N, 11.35°E
Report Text: LIPE 280120Z 26003KT 2000 -DZ BR BKN003 BKN007 08/08 Q1015
Loading
Personal Weather Stations






























Interactive Weather Map New forecast layout! Learn more

10-Day Weather Forecast

Advertisements
Track Severe Weather on mobile